Time;durP1;ratioP1;P1;durP2;ratioP2;P2;SDS_P1;SDS_P2;PMS_P1;PMS_P2;Temp;Humidity;BMP_temperature;BMP_pressure;BME280_temperature;BME280_humidity;BME280_pressure;Samples;Min_cycle;Max_cycle;Signal;HPM_P1;HPM_P2
2020/12/03 00:01:53;;;;;;;39.38;20.35;;;;;;;2.09;92.55;100791.66;6200011;28;20046;-67
2020/12/03 00:04:53;;;;;;;35.20;19.63;;;;;;;2.08;92.70;100786.50;6199445;28;20454;-69
2020/12/03 00:07:55;;;;;;;38.45;19.95;;;;;;;2.05;92.51;100777.06;6199032;28;20400;-69
2020/12/03 00:11:00;;;;;;;39.28;20.27;;;;;;;2.01;91.87;100777.97;6199212;28;20050;-69
2020/12/03 00:14:01;;;;;;;31.88;18.40;;;;;;;2.02;92.13;100783.13;6199335;28;20047;-69
2020/12/03 00:17:02;;;;;;;36.55;19.17;;;;;;;1.99;91.98;100788.34;6199124;28;20058;-69
2020/12/03 00:20:17;;;;;;;35.38;18.77;;;;;;;2.02;91.21;100780.53;6198396;28;20104;-69
2020/12/03 00:23:18;;;;;;;38.60;20.42;;;;;;;1.95;91.90;100773.78;6198882;28;20054;-69
2020/12/03 00:26:19;;;;;;;34.33;19.02;;;;;;;2.06;92.33;100770.97;6198679;28;20068;-69
2020/12/03 00:29:21;;;;;;;40.08;19.08;;;;;;;1.97;91.76;100759.03;6198284;28;20054;-69
2020/12/03 00:32:22;;;;;;;36.95;19.77;;;;;;;1.92;92.05;100763.44;6199023;28;20057;-69
2020/12/03 00:35:25;;;;;;;37.83;19.45;;;;;;;1.92;92.32;100757.41;6198440;28;20050;-69
2020/12/03 00:38:27;;;;;;;36.13;19.67;;;;;;;1.88;92.80;100760.94;6198558;28;20061;-69
2020/12/03 00:41:29;;;;;;;35.92;19.48;;;;;;;1.92;92.95;100755.69;6198452;28;20050;-69
2020/12/03 00:44:29;;;;;;;33.55;17.92;;;;;;;1.90;93.19;100747.06;6198359;28;20043;-69
2020/12/03 00:47:30;;;;;;;37.20;20.27;;;;;;;1.89;93.83;100742.75;6198125;28;20076;-69
2020/12/03 00:50:31;;;;;;;45.85;21.10;;;;;;;1.99;92.92;100735.66;6198498;28;20054;-69
2020/12/03 00:53:32;;;;;;;40.60;21.13;;;;;;;1.95;93.05;100726.25;6198253;28;20132;-69
2020/12/03 00:56:34;;;;;;;37.92;21.13;;;;;;;1.95;92.91;100723.66;6198264;28;20514;-69
2020/12/03 00:59:37;;;;;;;39.13;21.42;;;;;;;1.95;93.40;100724.53;6197917;28;20148;-69
2020/12/03 01:02:39;;;;;;;38.63;20.45;;;;;;;2.04;92.03;100707.94;6198523;28;20046;-69
2020/12/03 01:05:39;;;;;;;39.67;21.25;;;;;;;1.98;92.80;100697.69;6197949;28;20054;-69
2020/12/03 01:08:40;;;;;;;41.45;21.67;;;;;;;2.04;92.46;100702.75;6197377;28;20184;-69
2020/12/03 01:11:42;;;;;;;39.90;21.65;;;;;;;2.04;92.52;100697.56;6197977;28;20063;-69
2020/12/03 01:14:43;;;;;;;42.65;21.40;;;;;;;2.06;93.16;100693.22;6198249;28;20050;-69
2020/12/03 01:17:45;;;;;;;42.63;21.83;;;;;;;1.96;93.19;100694.28;6198231;28;20054;-69
2020/12/03 01:20:45;;;;;;;42.10;21.10;;;;;;;2.07;93.26;100689.75;6197437;28;20054;-69
2020/12/03 01:23:46;;;;;;;42.63;21.35;;;;;;;2.07;92.63;100691.47;6197997;28;20113;-69
2020/12/03 01:26:48;;;;;;;38.90;20.33;;;;;;;2.07;92.34;100692.31;6197263;28;20097;-69
2020/12/03 01:29:49;;;;;;;39.95;20.65;;;;;;;2.16;91.94;100696.47;6196945;28;20053;-69
2020/12/03 01:32:50;;;;;;;41.88;21.13;;;;;;;2.06;92.21;100684.59;6197574;28;20054;-70
2020/12/03 01:35:51;;;;;;;46.47;22.40;;;;;;;2.03;92.91;100682.91;6197192;28;20050;-67
2020/12/03 01:38:52;;;;;;;40.03;21.45;;;;;;;2.11;92.81;100675.84;6197217;28;20053;-67
2020/12/03 01:41:55;;;;;;;47.15;21.13;;;;;;;2.05;93.06;100675.13;6197723;28;20108;-69
2020/12/03 01:44:56;;;;;;;43.17;21.17;;;;;;;2.03;93.33;100664.75;6197657;28;20507;-69
2020/12/03 01:47:56;;;;;;;43.50;21.40;;;;;;;2.02;93.51;100661.31;6197008;28;20050;-69
2020/12/03 01:50:59;;;;;;;42.83;22.90;;;;;;;2.00;94.16;100665.69;6197201;28;20046;-69
2020/12/03 01:54:03;;;;;;;41.47;20.63;;;;;;;2.07;93.71;100658.63;6197241;28;20043;-69
2020/12/03 01:57:39;;;;;;;41.13;21.58;;;;;;;2.09;93.97;100658.59;6196857;28;20431;-69
2020/12/03 02:00:40;;;;;;;44.45;22.55;;;;;;;2.06;94.27;100658.69;6197363;28;20062;-69
2020/12/03 02:03:46;;;;;;;39.40;20.33;;;;;;;2.12;93.99;100646.44;6197044;28;20043;-69
2020/12/03 02:06:48;;;;;;;39.35;20.75;;;;;;;2.13;93.44;100647.28;6196909;28;20054;-69
2020/12/03 02:09:49;;;;;;;42.83;21.55;;;;;;;2.06;93.95;100636.19;6196785;28;20073;-69
2020/12/03 02:12:51;;;;;;;38.92;20.52;;;;;;;2.06;94.10;100627.56;6197215;28;20046;-69
2020/12/03 02:15:52;;;;;;;38.70;20.02;;;;;;;2.07;94.92;100624.94;6196999;28;20517;-69
2020/12/03 02:18:53;;;;;;;44.47;22.25;;;;;;;2.07;94.68;100622.34;6196855;28;20055;-69
2020/12/03 02:21:59;;;;;;;40.47;21.77;;;;;;;2.08;94.84;100611.09;6197228;28;20423;-69
2020/12/03 02:24:59;;;;;;;41.13;21.60;;;;;;;2.15;94.53;100604.06;6197145;28;20057;-69
2020/12/03 02:28:00;;;;;;;40.67;21.00;;;;;;;2.10;93.72;100588.59;6196980;28;20555;-69
2020/12/03 02:31:01;;;;;;;39.60;21.40;;;;;;;2.12;94.24;100592.00;6196637;28;20050;-69
2020/12/03 02:34:02;;;;;;;44.35;22.58;;;;;;;2.11;94.53;100584.25;6196647;28;20050;-69
2020/12/03 02:37:04;;;;;;;45.00;22.77;;;;;;;2.10;94.53;100587.75;6196827;28;20050;-69
2020/12/03 02:40:06;;;;;;;47.92;22.92;;;;;;;2.11;95.15;100576.50;6196550;28;20054;-69
2020/12/03 02:43:07;;;;;;;43.45;22.85;;;;;;;2.11;94.34;100568.72;6200377;28;20057;-69
2020/12/03 02:46:07;;;;;;;43.28;21.85;;;;;;;2.13;94.09;100560.00;6200991;28;20050;-69
2020/12/03 02:49:09;;;;;;;44.72;22.63;;;;;;;2.13;94.54;100553.97;6201248;28;20051;-69
2020/12/03 02:52:13;;;;;;;46.63;22.05;;;;;;;2.14;94.45;100542.75;6201409;28;20123;-69
2020/12/03 02:55:14;;;;;;;43.08;21.38;;;;;;;2.13;94.61;100548.78;6201549;28;20054;-69
2020/12/03 02:58:14;;;;;;;46.00;22.80;;;;;;;2.16;94.24;100538.34;6200782;28;20061;-69
2020/12/03 03:01:15;;;;;;;45.10;22.90;;;;;;;2.11;94.16;100532.44;6201043;28;20055;-70
2020/12/03 03:04:16;;;;;;;44.38;21.48;;;;;;;2.15;95.03;100540.09;6195322;28;20046;-67
2020/12/03 03:07:18;;;;;;;49.47;23.27;;;;;;;2.13;95.40;100531.50;6221177;23;20050;-70
2020/12/03 03:10:21;;;;;;;50.00;22.55;;;;;;;2.24;95.00;100529.53;6199804;28;20427;-71
2020/12/03 03:13:22;;;;;;;41.67;21.27;;;;;;;2.27;93.96;100524.28;6200604;28;20050;-71
2020/12/03 03:16:23;;;;;;;42.80;21.25;;;;;;;2.21;94.62;100518.38;6198822;28;20066;-71
2020/12/03 03:19:24;;;;;;;46.92;22.40;;;;;;;2.21;94.64;100519.22;6176129;28;20497;-71
2020/12/03 03:22:26;;;;;;;43.55;22.73;;;;;;;2.22;95.59;100514.88;6176737;28;20055;-71
2020/12/03 03:25:27;;;;;;;46.08;22.63;;;;;;;2.17;95.27;100506.34;6176281;28;20063;-71
2020/12/03 03:28:27;;;;;;;42.45;22.42;;;;;;;2.29;95.01;100506.09;6176172;28;20062;-71
2020/12/03 03:31:28;;;;;;;43.72;21.30;;;;;;;2.27;94.10;100500.94;6175251;28;20511;-71
2020/12/03 03:34:29;;;;;;;47.53;22.30;;;;;;;2.17;94.40;100491.66;6176364;28;20043;-71
2020/12/03 03:37:31;;;;;;;44.33;22.75;;;;;;;2.15;95.07;100490.00;6175923;28;20051;-71
2020/12/03 03:40:32;;;;;;;46.08;21.35;;;;;;;2.21;94.68;100485.50;6175555;28;20047;-71
2020/12/03 03:43:33;;;;;;;44.33;22.42;;;;;;;2.18;94.63;100475.25;6176294;28;20065;-71
2020/12/03 03:46:34;;;;;;;49.65;20.92;;;;;;;2.20;94.78;100462.22;6167007;28;20538;-71
2020/12/03 03:49:35;;;;;;;42.95;20.25;;;;;;;2.22;94.62;100466.47;6151765;28;20090;-71
2020/12/03 03:52:38;;;;;;;45.33;22.10;;;;;;;2.17;94.96;100467.47;6151442;28;20138;-71
2020/12/03 03:55:39;;;;;;;45.35;21.17;;;;;;;2.19;94.98;100463.97;6151705;28;20050;-71
2020/12/03 03:58:40;;;;;;;42.15;21.35;;;;;;;2.25;93.47;100457.78;6150980;28;20051;-71
2020/12/03 04:01:41;;;;;;;36.35;19.65;;;;;;;2.26;94.00;100455.16;6151973;29;20054;-71
2020/12/03 04:04:42;;;;;;;43.10;20.77;;;;;;;2.28;93.97;100452.53;6151440;29;20063;-71
2020/12/03 04:07:44;;;;;;;43.95;20.42;;;;;;;2.26;94.09;100442.19;6174279;28;20047;-71
2020/12/03 04:10:45;;;;;;;38.38;19.63;;;;;;;2.29;93.37;100438.69;6175118;28;20050;-70
2020/12/03 04:13:46;;;;;;;41.85;20.73;;;;;;;2.24;95.05;100438.78;6174443;28;20046;-71
2020/12/03 04:16:47;;;;;;;42.30;20.95;;;;;;;2.39;94.00;100431.53;6174989;28;20063;-71
2020/12/03 04:19:48;;;;;;;41.63;20.45;;;;;;;2.31;93.74;100426.50;6174696;28;20054;-71
2020/12/03 04:22:49;;;;;;;42.15;20.88;;;;;;;2.24;94.62;100430.16;6175285;28;20071;-70
2020/12/03 04:25:50;;;;;;;41.00;20.98;;;;;;;2.17;95.43;100434.63;6175007;28;20062;-71
2020/12/03 04:28:51;;;;;;;41.63;20.67;;;;;;;2.12;95.22;100427.84;6174503;28;20142;-71
2020/12/03 04:31:52;;;;;;;44.38;21.05;;;;;;;2.14;95.74;100426.94;6174420;28;20051;-71
2020/12/03 04:34:53;;;;;;;44.67;22.60;;;;;;;2.21;95.70;100425.03;6174917;28;20050;-71
2020/12/03 04:37:55;;;;;;;44.50;21.23;;;;;;;2.16;95.76;100422.56;6174675;28;20082;-71
2020/12/03 04:40:56;;;;;;;40.00;19.42;;;;;;;2.21;96.15;100427.63;6174203;28;20050;-71
2020/12/03 04:44:02;;;;;;;41.33;19.90;;;;;;;2.24;96.49;100423.22;6174942;28;20070;-71
2020/12/03 04:47:29;;;;;;;46.08;22.23;;;;;;;2.15;96.16;100412.25;6174107;28;20065;-71
2020/12/03 04:50:43;;;;;;;44.85;21.15;;;;;;;2.15;96.41;100414.84;6174294;28;20051;-71
2020/12/03 04:53:56;;;;;;;38.05;19.73;;;;;;;2.25;96.85;100411.13;6174633;28;20133;-71
2020/12/03 04:57:02;;;;;;;38.97;20.48;;;;;;;2.20;97.01;100397.44;6173872;28;20476;-71
2020/12/03 05:00:12;;;;;;;39.75;20.90;;;;;;;2.24;95.53;100402.50;6173546;28;20104;-71
2020/12/03 05:03:33;;;;;;;41.22;21.05;;;;;;;2.25;95.70;100388.63;6174276;28;20054;-71
2020/12/03 05:06:40;;;;;;;37.03;19.45;;;;;;;2.23;96.19;100387.00;6172904;28;20054;-70
2020/12/03 05:09:48;;;;;;;41.63;19.98;;;;;;;2.17;96.43;100379.34;6173721;28;20510;-71
2020/12/03 05:12:49;;;;;;;40.40;20.38;;;;;;;2.18;96.23;100383.63;6174172;28;20066;-71
2020/12/03 05:15:56;;;;;;;39.88;20.83;;;;;;;2.19;96.38;100375.00;6173857;28;20050;-70
2020/12/03 05:18:59;;;;;;;44.25;20.35;;;;;;;2.25;96.48;100372.22;6173646;28;20051;-71
2020/12/03 05:22:12;;;;;;;41.90;20.88;;;;;;;2.21;96.59;100371.44;6173943;28;20047;-71
2020/12/03 05:25:18;;;;;;;40.30;20.35;;;;;;;2.23;96.23;100374.03;6174060;28;20047;-71
2020/12/03 05:28:29;;;;;;;37.42;18.80;;;;;;;2.25;95.36;100367.91;6172487;28;20054;-71
2020/12/03 05:31:33;;;;;;;34.92;19.38;;;;;;;2.26;95.35;100356.63;6173539;28;20514;-72
2020/12/03 05:34:35;;;;;;;41.45;19.55;;;;;;;2.35;94.40;100346.91;6173486;28;20419;-70
2020/12/03 05:37:39;;;;;;;36.75;18.90;;;;;;;2.39;93.04;100345.94;6171668;28;20050;-71
2020/12/03 05:40:41;;;;;;;32.08;17.52;;;;;;;2.45;94.19;100348.38;6173108;28;20047;-70
2020/12/03 05:43:42;;;;;;;36.55;19.80;;;;;;;2.33;93.75;100346.97;6149549;28;20044;-71
2020/12/03 05:46:43;;;;;;;35.70;18.88;;;;;;;2.27;94.41;100344.50;6149311;29;20059;-70
2020/12/03 05:49:43;;;;;;;36.75;18.83;;;;;;;2.33;94.24;100343.53;6148954;28;20435;-71
2020/12/03 05:52:58;;;;;;;37.15;18.58;;;;;;;2.43;93.28;100337.22;6149520;28;20051;-71
2020/12/03 05:56:12;;;;;;;40.05;19.88;;;;;;;2.39;93.58;100333.00;6149277;28;20055;-70
2020/12/03 05:59:16;;;;;;;36.25;18.55;;;;;;;2.38;93.53;100332.13;6159994;28;20097;-71
2020/12/03 06:02:30;;;;;;;37.42;18.02;;;;;;;2.48;92.70;100327.56;6173661;28;20058;-71
2020/12/03 06:05:39;;;;;;;35.72;17.85;;;;;;;2.50;93.12;100326.63;6172738;28;20042;-70
2020/12/03 06:08:57;;;;;;;34.92;18.08;;;;;;;2.42;92.60;100327.72;6169677;28;20047;-71
2020/12/03 06:12:15;;;;;;;37.60;19.70;;;;;;;2.44;93.12;100326.78;6173062;28;20439;-71
2020/12/03 06:15:34;;;;;;;36.50;18.73;;;;;;;2.31;93.54;100314.19;6173020;28;20054;-71
2020/12/03 06:18:55;;;;;;;39.30;19.25;;;;;;;2.40;93.38;100309.59;6173993;28;20087;-70
2020/12/03 06:22:04;;;;;;;38.03;19.20;;;;;;;2.38;94.03;100295.00;6167201;28;20070;-70
2020/12/03 06:25:38;;;;;;;36.78;18.02;;;;;;;2.41;93.34;100293.16;6178061;28;20047;-71
2020/12/03 06:28:53;;;;;;;37.25;19.73;;;;;;;2.32;94.03;100288.25;6164566;28;20062;-70
2020/12/03 06:32:10;;;;;;;37.00;18.60;;;;;;;2.33;94.48;100279.56;6177698;28;20061;-71
2020/12/03 06:35:23;;;;;;;37.90;19.25;;;;;;;2.18;94.78;100280.81;6177404;28;20054;-71
2020/12/03 06:38:33;;;;;;;38.45;19.23;;;;;;;2.26;94.22;100278.00;6177354;28;20051;-71
2020/12/03 06:41:42;;;;;;;;;;;;;;;2.35;94.08;100275.16;6177427;28;20054;-71
2020/12/03 06:44:50;;;;;;;47.15;20.17;;;;;;;2.27;94.39;100267.63;6177603;28;19922;-70
2020/12/03 06:48:17;;;;;;;37.25;18.83;;;;;;;2.39;93.87;100265.56;6176778;28;20415;-70
2020/12/03 06:51:48;;;;;;;42.00;20.95;;;;;;;2.46;93.59;100264.53;6176847;28;20073;-70
2020/12/03 06:55:10;;;;;;;39.17;19.13;;;;;;;2.41;92.35;100264.66;6172618;28;20047;-71
2020/12/03 06:58:59;;;;;;;34.15;18.65;;;;;;;2.37;93.21;100268.22;6175843;28;20053;-70
2020/12/03 07:02:34;;;;;;;39.10;19.33;;;;;;;2.35;93.75;100274.31;6176506;28;20058;-71
2020/12/03 07:05:55;;;;;;;39.40;18.60;;;;;;;2.35;93.62;100276.91;6177083;28;20047;-71
2020/12/03 07:09:29;;;;;;;36.35;18.80;;;;;;;2.31;93.75;100272.69;6152226;28;20568;-70
2020/12/03 07:12:51;;;;;;;34.58;18.33;;;;;;;2.36;94.88;100271.69;6152260;29;20058;-70
2020/12/03 07:16:17;;;;;;;37.15;18.83;;;;;;;2.41;94.22;100267.25;6152548;29;20421;-69
2020/12/03 07:19:42;;;;;;;38.13;19.30;;;;;;;2.32;94.41;100262.31;6152426;29;20062;-69
2020/12/03 07:22:49;;;;;;;40.92;20.45;;;;;;;2.34;95.09;100257.06;6152477;29;20051;-69
2020/12/03 07:25:50;;;;;;;35.95;18.85;;;;;;;2.45;94.01;100255.91;6152644;29;20058;-70
2020/12/03 07:28:53;;;;;;;37.55;19.27;;;;;;;2.37;94.15;100246.63;6164456;28;20071;-70
2020/12/03 07:31:59;;;;;;;37.88;19.85;;;;;;;2.33;93.40;100232.88;6176637;28;20051;-70
2020/12/03 07:35:08;;;;;;;37.10;19.27;;;;;;;2.34;93.92;100231.16;6176154;28;20420;-70
2020/12/03 07:38:18;;;;;;;38.63;19.98;;;;;;;2.31;94.22;100218.25;6176104;28;20054;-70
2020/12/03 07:41:22;;;;;;;38.92;18.85;;;;;;;2.47;93.21;100217.78;6175819;28;20073;-70
2020/12/03 07:44:34;;;;;;;38.17;19.10;;;;;;;2.36;93.49;100211.19;6176314;28;20174;-70
2020/12/03 07:47:37;;;;;;;38.17;19.35;;;;;;;2.37;93.69;100208.56;6174953;28;20563;-69
2020/12/03 07:51:06;;;;;;;39.63;20.33;;;;;;;2.34;94.41;100213.00;6175653;28;20054;-70
2020/12/03 07:54:22;;;;;;;36.70;18.80;;;;;;;2.48;93.09;100208.25;6175664;28;20412;-70
2020/12/03 07:57:25;;;;;;;36.65;18.67;;;;;;;2.35;93.28;100199.13;6174939;28;20304;-70
2020/12/03 08:00:43;;;;;;;37.53;19.30;;;;;;;2.34;94.05;100198.28;6175272;28;20057;-70
2020/12/03 08:03:47;;;;;;;37.60;19.48;;;;;;;2.42;93.69;100185.13;6175822;28;20051;-69
2020/12/03 08:07:31;;;;;;;41.13;20.13;;;;;;;2.34;94.21;100179.28;6174931;28;20435;-70
2020/12/03 08:10:36;;;;;;;38.90;19.88;;;;;;;2.30;95.73;100173.34;6174778;28;20508;-70
2020/12/03 08:13:40;;;;;;;45.03;21.15;;;;;;;2.19;95.85;100158.09;6174505;28;20047;-70
2020/12/03 08:16:43;;;;;;;37.30;19.55;;;;;;;2.20;96.22;100159.78;6174519;28;20074;-69
2020/12/03 08:19:46;;;;;;;42.55;20.58;;;;;;;2.19;97.04;100175.41;6174555;28;20051;-69
2020/12/03 08:22:49;;;;;;;44.20;20.77;;;;;;;2.21;96.71;100171.00;6167406;28;20051;-69
2020/12/03 08:25:50;;;;;;;43.42;20.40;;;;;;;2.26;96.29;100177.75;6174818;28;20046;-69
2020/12/03 08:28:51;;;;;;;38.75;19.65;;;;;;;2.23;96.07;100169.25;6173840;28;20401;-70
2020/12/03 08:31:52;;;;;;;39.83;19.02;;;;;;;2.33;96.08;100168.06;6174834;28;20055;-70
2020/12/03 08:34:53;;;;;;;40.25;19.90;;;;;;;2.34;95.77;100167.16;6174729;28;20450;-69
2020/12/03 08:37:55;;;;;;;41.78;20.27;;;;;;;2.37;95.89;100167.09;6174457;28;20054;-69
2020/12/03 08:40:58;;;;;;;37.47;19.80;;;;;;;2.33;96.04;100175.00;6174173;28;20488;-69
2020/12/03 08:44:03;;;;;;;39.90;19.35;;;;;;;2.36;95.38;100169.72;6174801;28;20051;-69
2020/12/03 08:47:10;;;;;;;39.28;19.77;;;;;;;2.46;95.88;100178.94;6174328;28;20492;-69
2020/12/03 08:50:14;;;;;;;36.67;19.38;;;;;;;2.43;95.26;100179.88;6174270;28;20057;-69
2020/12/03 08:53:15;;;;;;;41.90;20.58;;;;;;;2.44;94.74;100173.78;6174282;28;20420;-69
2020/12/03 08:56:29;;;;;;;38.83;19.65;;;;;;;2.47;94.48;100181.47;6174130;28;20047;-69
2020/12/03 08:59:34;;;;;;;37.72;18.98;;;;;;;2.39;94.86;100178.25;6150149;29;20082;-69
2020/12/03 09:02:35;;;;;;;34.67;18.55;;;;;;;2.38;95.33;100173.13;6160993;28;20046;-69
2020/12/03 09:05:37;;;;;;;38.20;19.10;;;;;;;2.34;95.00;100176.69;6169272;28;20397;-69
2020/12/03 09:08:38;;;;;;;39.22;19.27;;;;;;;2.38;95.31;100167.94;6173060;28;20058;-69
2020/12/03 09:11:39;;;;;;;36.88;18.17;;;;;;;2.45;94.26;100172.03;6174114;28;20077;-69
2020/12/03 09:14:42;;;;;;;34.47;17.48;;;;;;;2.67;93.14;100162.72;6241677;22;20054;-73
2020/12/03 09:17:48;;;;;;;36.95;18.77;;;;;;;2.52;92.39;100164.03;6221653;28;20419;-73
2020/12/03 09:20:50;;;;;;;40.08;19.80;;;;;;;2.45;93.02;100159.94;6214341;28;20056;-73
2020/12/03 09:23:53;;;;;;;33.67;17.17;;;;;;;2.51;91.77;100158.91;6222166;28;20525;-73
2020/12/03 09:27:01;;;;;;;32.67;17.15;;;;;;;2.54;91.98;100161.38;6215172;28;20050;-72
2020/12/03 09:30:04;;;;;;;35.63;17.63;;;;;;;2.46;92.27;100146.09;6197407;28;20086;-72
2020/12/03 09:33:10;;;;;;;34.40;17.98;;;;;;;2.47;92.27;100146.94;6197664;28;20062;-73
2020/12/03 09:36:12;;;;;;;35.58;17.48;;;;;;;2.51;91.41;100139.00;6207453;28;20126;-72
2020/12/03 09:39:14;;;;;;;37.47;18.25;;;;;;;2.43;93.01;100143.56;6209469;28;20054;-73
2020/12/03 09:42:17;;;;;;;37.67;18.25;;;;;;;2.56;93.31;100136.28;6206313;28;20050;-72
2020/12/03 09:45:21;;;;;;;36.80;18.08;;;;;;;2.59;92.10;100128.41;6221977;28;20053;-73
2020/12/03 09:48:25;;;;;;;34.47;17.58;;;;;;;2.57;91.71;100111.19;6221553;28;20054;-73
2020/12/03 09:51:27;;;;;;;34.13;17.05;;;;;;;2.62;91.90;100109.28;6215346;28;20488;-72
2020/12/03 09:54:27;;;;;;;38.55;18.63;;;;;;;2.61;92.32;100111.03;6221699;28;20068;-72
2020/12/03 09:57:28;;;;;;;34.80;16.60;;;;;;;2.72;91.81;100100.31;6208343;28;20062;-72
2020/12/03 10:00:31;;;;;;;33.47;17.30;;;;;;;2.73;91.72;100104.63;6197007;28;20046;-72
2020/12/03 10:04:18;;;;;;;41.88;19.02;;;;;;;2.66;92.49;100096.19;6197618;28;20053;-72
2020/12/03 10:07:29;;;;;;;38.58;17.90;;;;;;;2.74;91.99;100081.22;6212071;28;20058;-72
2020/12/03 10:10:43;;;;;;;34.47;17.52;;;;;;;2.84;92.17;100075.75;6208630;28;20527;-72
2020/12/03 10:14:20;;;;;;;39.53;19.27;;;;;;;2.86;90.95;100072.22;6207808;28;20053;-72
2020/12/03 10:17:26;;;;;;;38.25;18.73;;;;;;;2.85;91.54;100054.09;6208060;28;20053;-72
2020/12/03 10:20:27;;;;;;;33.50;16.52;;;;;;;2.91;91.15;100046.97;6208093;28;20061;-72
2020/12/03 10:23:39;;;;;;;36.47;18.92;;;;;;;2.87;91.53;100037.56;6207694;28;20042;-72
2020/12/03 10:26:49;;;;;;;34.17;18.05;;;;;;;2.92;91.64;100030.47;6206136;28;20515;-72
2020/12/03 10:29:58;;;;;;;37.38;18.75;;;;;;;2.96;91.62;100026.03;6206689;28;20056;-72
2020/12/03 10:33:00;;;;;;;45.38;19.63;;;;;;;3.02;91.31;100010.25;6206786;28;20510;-73
2020/12/03 10:36:10;;;;;;;35.78;17.10;;;;;;;3.05;90.88;100011.00;6206829;28;20521;-72
2020/12/03 10:39:14;;;;;;;;;;;;;;;3.09;89.53;100003.09;6208137;28;20089;-70
2020/12/03 10:42:18;;;;;;;29.55;15.93;;;;;;;3.08;90.78;100004.00;6206408;28;19925;-72
2020/12/03 10:45:26;;;;;;;39.03;18.27;;;;;;;3.26;90.38;99998.16;6201529;28;20423;-72
2020/12/03 10:48:32;;;;;;;36.78;17.08;;;;;;;3.14;90.19;99989.06;6220863;28;20411;-72
2020/12/03 10:51:33;;;;;;;30.85;15.60;;;;;;;3.33;90.09;99978.88;6220625;28;20085;-72
2020/12/03 10:54:34;;;;;;;33.80;17.67;;;;;;;3.17;89.47;99977.72;6220994;28;20050;-72
2020/12/03 10:57:42;;;;;;;35.10;17.45;;;;;;;3.23;90.24;99973.16;6220275;28;20061;-72
2020/12/03 11:00:43;;;;;;;32.15;16.17;;;;;;;3.25;90.57;99970.50;6220490;28;20145;-72
2020/12/03 11:03:44;;;;;;;33.08;16.15;;;;;;;3.34;89.53;99962.38;6222703;28;20073;-71
2020/12/03 11:06:45;;;;;;;31.73;16.27;;;;;;;3.28;90.51;99957.44;6224020;28;20053;-71
2020/12/03 11:09:52;;;;;;;35.13;17.17;;;;;;;3.14;90.63;99938.91;6207371;28;20054;-72
2020/12/03 11:12:58;;;;;;;37.28;18.70;;;;;;;3.26;91.40;99936.69;6200848;28;20050;-71
2020/12/03 11:16:02;;;;;;;35.72;17.60;;;;;;;3.37;90.17;99938.06;6200421;28;20161;-72
2020/12/03 11:19:08;;;;;;;74.10;22.33;;;;;;;3.63;88.68;99935.31;6200415;28;20047;-71
2020/12/03 11:22:27;;;;;;;33.03;16.80;;;;;;;3.55;89.32;99932.19;6207016;28;20045;-72
2020/12/03 11:25:29;;;;;;;36.67;16.20;;;;;;;3.62;89.75;99932.78;6221878;28;20060;-72
2020/12/03 11:28:34;;;;;;;34.83;15.98;;;;;;;3.64;88.10;99933.59;6200001;28;20054;-72
2020/12/03 11:31:35;;;;;;;30.48;16.05;;;;;;;3.63;87.85;99937.06;6200497;28;20054;-72
2020/12/03 11:34:37;;;;;;;26.10;14.13;;;;;;;3.72;88.02;99921.13;6200267;28;20046;-72
2020/12/03 11:37:42;;;;;;;32.53;15.75;;;;;;;3.75;88.16;99906.28;6206506;28;20449;-72
2020/12/03 11:40:51;;;;;;;29.80;16.02;;;;;;;3.75;87.85;99910.63;6220363;28;20061;-72
2020/12/03 11:50:38;;;;;;;30.13;15.82;;;;;;;3.85;88.22;99898.13;6217607;28;19917;-72
2020/12/03 11:53:39;;;;;;;27.77;14.93;;;;;;;3.82;87.32;99899.09;6211255;28;20058;-72
2020/12/03 11:56:40;;;;;;;34.13;15.00;;;;;;;3.94;85.49;99888.19;6209552;28;20046;-72
2020/12/03 11:59:42;;;;;;;26.85;14.10;;;;;;;3.94;85.46;99882.16;6209089;28;20061;-72
2020/12/03 12:02:42;;;;;;;26.88;14.45;;;;;;;3.80;86.05;99887.91;6211303;28;20065;-72
2020/12/03 12:05:49;;;;;;;28.77;14.85;;;;;;;3.58;86.81;99880.09;6209036;28;20041;-72
2020/12/03 12:08:55;;;;;;;27.33;15.10;;;;;;;3.68;86.08;99875.38;6207040;28;20080;-72
2020/12/03 12:11:57;;;;;;;30.85;15.55;;;;;;;3.72;85.47;99874.38;6208637;28;20057;-72
2020/12/03 12:14:58;;;;;;;26.52;13.98;;;;;;;3.67;86.93;99864.16;6208724;28;20046;-72
2020/12/03 12:17:58;;;;;;;26.95;13.98;;;;;;;3.64;86.72;99868.66;6209965;28;20060;-72
2020/12/03 12:20:59;;;;;;;28.70;14.90;;;;;;;3.74;85.92;99862.19;6210878;28;20077;-72
2020/12/03 12:24:00;;;;;;;28.70;14.05;;;;;;;3.85;86.49;99854.78;6223142;28;20414;-72
2020/12/03 12:27:02;;;;;;;26.33;13.30;;;;;;;3.86;85.58;99845.22;6203565;28;20139;-72
2020/12/03 12:30:04;;;;;;;27.27;13.98;;;;;;;3.78;85.59;99836.00;6206149;28;20053;-72
2020/12/03 12:33:04;;;;;;;23.63;13.02;;;;;;;3.92;85.28;99832.84;6222792;28;20530;-72
2020/12/03 12:36:05;;;;;;;23.75;13.13;;;;;;;3.99;84.22;99836.88;6220631;28;20060;-71
2020/12/03 12:39:06;;;;;;;30.20;14.15;;;;;;;4.19;85.46;99822.22;6222367;28;20431;-72
2020/12/03 12:42:09;;;;;;;27.48;13.02;;;;;;;4.11;84.61;99806.94;6198953;28;20047;-72
2020/12/03 12:45:10;;;;;;;28.52;14.82;;;;;;;4.18;84.04;99794.50;6219581;28;20042;-72
2020/12/03 12:48:11;;;;;;;25.98;14.20;;;;;;;4.27;85.29;99784.59;6222621;28;20176;-72
2020/12/03 12:51:11;;;;;;;26.08;13.13;;;;;;;4.27;82.87;99792.38;6222473;28;20457;-72
2020/12/03 12:54:12;;;;;;;27.30;13.38;;;;;;;4.37;81.48;99789.41;6222728;28;20072;-72
2020/12/03 12:57:14;;;;;;;24.55;12.32;;;;;;;4.19;82.24;99780.63;6198646;28;20105;-72
2020/12/03 13:00:15;;;;;;;23.92;12.60;;;;;;;4.19;84.10;99772.81;6203213;28;20058;-70
2020/12/03 13:03:15;;;;;;;29.88;13.35;;;;;;;4.23;83.57;99761.38;6207742;28;20423;-72
2020/12/03 13:06:17;;;;;;;26.42;14.25;;;;;;;4.31;84.15;99747.13;6200391;28;20046;-70
2020/12/03 13:09:17;;;;;;;26.27;13.63;;;;;;;4.35;84.42;99744.38;6197544;28;20524;-70
2020/12/03 13:12:19;;;;;;;27.88;14.38;;;;;;;4.21;83.75;99747.59;6210776;28;20058;-70
2020/12/03 13:15:20;;;;;;;28.30;14.95;;;;;;;4.08;85.06;99742.06;6219442;28;20076;-71
2020/12/03 13:18:21;;;;;;;27.92;14.43;;;;;;;3.95;83.27;99730.50;6217571;28;20490;-70
2020/12/03 13:21:23;;;;;;;25.75;13.98;;;;;;;3.81;85.00;99724.16;6221929;28;20418;-70
2020/12/03 13:24:24;;;;;;;32.33;15.52;;;;;;;3.86;85.35;99716.16;6221773;28;20835;-70
2020/12/03 13:27:25;;;;;;;26.73;13.68;;;;;;;3.82;85.69;99722.41;6217647;28;20056;-72
2020/12/03 13:30:26;;;;;;;25.35;14.57;;;;;;;3.79;85.28;99712.97;6207701;28;20054;-70
2020/12/03 13:33:27;;;;;;;27.88;14.02;;;;;;;3.56;85.62;99703.53;6218196;28;20456;-71
2020/12/03 13:36:28;;;;;;;25.27;13.10;;;;;;;3.57;86.41;99706.97;6208228;28;20473;-71
2020/12/03 13:39:29;;;;;;;26.85;14.57;;;;;;;3.50;85.92;99708.16;6196971;28;20422;-71
2020/12/03 13:42:30;;;;;;;25.40;13.40;;;;;;;3.41;85.86;99711.13;6197596;28;20188;-72
2020/12/03 13:45:31;;;;;;;23.77;13.35;;;;;;;3.24;86.24;99704.84;6197612;28;20485;-73
2020/12/03 13:48:32;;;;;;;25.73;13.98;;;;;;;3.34;86.94;99707.91;6197272;28;20053;-70
2020/12/03 13:51:33;;;;;;;27.92;13.18;;;;;;;3.24;87.44;99709.19;6196993;28;20495;-70
2020/12/03 13:54:34;;;;;;;32.15;14.38;;;;;;;3.17;87.05;99692.16;6202004;28;20053;-70
2020/12/03 13:57:36;;;;;;;25.27;12.68;;;;;;;3.14;87.11;99687.97;6217178;28;20617;-70
2020/12/03 14:00:37;;;;;;;27.60;13.43;;;;;;;3.11;87.50;99685.47;6196299;28;20087;-71
2020/12/03 14:03:38;;;;;;;28.45;12.82;;;;;;;3.08;87.43;99674.34;6197334;28;20415;-73
2020/12/03 14:06:38;;;;;;;30.83;13.57;;;;;;;2.99;87.72;99658.25;6197004;28;20696;-70
2020/12/03 14:09:39;;;;;;;26.50;12.90;;;;;;;3.05;87.87;99650.22;6196710;28;20057;-70
2020/12/03 14:12:41;;;;;;;35.28;13.77;;;;;;;3.06;87.08;99651.06;6197102;28;20057;-70
2020/12/03 14:15:42;;;;;;;24.08;12.07;;;;;;;3.05;87.36;99642.44;6197200;28;20054;-70
2020/12/03 14:18:42;;;;;;;24.58;12.90;;;;;;;3.08;87.28;99641.47;6196380;28;20531;-70
2020/12/03 14:21:43;;;;;;;20.77;11.65;;;;;;;3.08;86.45;99638.88;6197351;28;20407;-72